Enchantment of the Seas — C6FZ7 — position and weather

sailwx.info

Track history (hours):
 
Tides and Currents Weather Stations Pressure Air Temp Water Temp Dewpoint Dewpoint Depression Visibility Wind Speed Wind Dir Waves Ship Positions

Enchantment of the Seas (Bahamas)

Last reported at 2016-Jun-28 00:24 UTC. Time now 2016-Jun-28 09:38 UTC.
Position N 26°12' W 079°20'.

Type: Passenger vessel. MMSI: 311733000.

Date/timePositionNaut miles runAvg speedWind from/ knotsBaromVisibWave heightAir tempDewpointWater temp
2016-Jun-28 00:24N 26°12' W 079°20'1113.6
2016-Jun-27 23:33N 26°05' W 079°30'1313.5
2016-Jun-27 22:33N 25°58' W 079°43'1313.4
2016-Jun-27 21:33N 25°51' W 079°55'1212.4
2016-Jun-27 20:33N 25°46' W 080°08'3 2.6
2016-Jun-27 19:28N 25°47' W 080°11'0 0.0
2016-Jun-27 18:13N 25°47' W 080°11'0 0.0
2016-Jun-27 17:31N 25°47' W 080°11'0 0.0
2016-Jun-27 16:28N 25°47' W 080°11'0 0.0
2016-Jun-27 15:16N 25°47' W 080°11'0 0.0
2016-Jun-27 14:28N 25°47' W 080°11'0 0.0
2016-Jun-27 13:28N 25°47' W 080°11'0 0.0
2016-Jun-27 12:19N 25°47' W 080°11'0 0.0
2016-Jun-27 11:22N 25°47' W 080°11'0 0.4
2016-Jun-27 10:31N 25°47' W 080°11'8 8.0
2016-Jun-27 09:33N 25°47' W 080°02'1414.5
2016-Jun-27 08:34N 25°54' W 079°48'1413.5
2016-Jun-27 07:33N 26°02' W 079°36'  
2016-Jun-25 01:33N 26°07' W 079°27'9 9.1
2016-Jun-25 00:33N 26°02' W 079°36'9 9.4
2016-Jun-24 23:33N 25°57' W 079°44'10 9.8
2016-Jun-24 22:33N 25°52' W 079°54'10 9.6
2016-Jun-24 21:33N 25°47' W 080°03'7 6.8
2016-Jun-24 20:30N 25°47' W 080°11'0 0.0
2016-Jun-24 19:33N 25°47' W 080°11'0 0.0
2016-Jun-24 18:33N 25°47' W 080°11'0 0.0
2016-Jun-24 17:30N 25°47' W 080°11'0 0.0
2016-Jun-24 16:21N 25°47' W 080°11'0 0.0
2016-Jun-24 15:33N 25°47' W 080°11'0 0.0
2016-Jun-24 14:21N 25°47' W 080°11'0 0.0
2016-Jun-24 13:06N 25°47' W 080°11'0 0.1
2016-Jun-24 10:33N 25°47' W 080°11'7 6.8
2016-Jun-24 09:33N 25°47' W 080°03'23 0.8
2016-Jun-23 03:04N 25°45' W 079°38'26 0.5
2016-Jun-21 00:33N 26°08' W 079°26'1414.1
2016-Jun-20 23:33N 26°01' W 079°39'1414.3
2016-Jun-20 22:33N 25°52' W 079°51'1313.1
2016-Jun-20 21:34N 25°46' W 080°04'6 5.6
2016-Jun-20 20:32N 25°47' W 080°11'0 0.0
2016-Jun-20 10:30N 25°47' W 080°11'8 8.4
2016-Jun-20 09:33N 25°47' W 080°02'1413.5
2016-Jun-20 08:34N 25°55' W 079°50'1414.4
2016-Jun-20 07:33N 26°02' W 079°36'1313.2
2016-Jun-20 06:33N 26°10' W 079°24'81 1.9
2016-Jun-18 12:18N 25°50' W 077°56'79 8.0
2016-Jun-18 02:30N 26°11' W 079°21'9 9.1
2016-Jun-18 01:33N 26°06' W 079°29'10 9.6
2016-Jun-18 00:33N 26°01' W 079°38'  
Track history (hours):
 
Tides and Currents Weather Stations Pressure Air Temp Water Temp Dewpoint Dewpoint Depression Visibility Wind Speed Wind Dir Waves Ship Positions

Enchantment of the Seas (Bahamas)

Last reported at 2016-Jun-28 00:24 UTC. Time now 2016-Jun-28 09:38 UTC.
Position N 26°12' W 079°20'.

Type: Passenger vessel. MMSI: 311733000.

Date/timePositionNaut miles runAvg speedWind from/ knotsBaromVisibWave heightAir tempDewpointWater temp
2016-Jun-28 00:24N 26°12' W 079°20'1113.6
2016-Jun-27 23:33N 26°05' W 079°30'1313.5
2016-Jun-27 22:33N 25°58' W 079°43'1313.4
2016-Jun-27 21:33N 25°51' W 079°55'1212.4
2016-Jun-27 20:33N 25°46' W 080°08'3 2.6
2016-Jun-27 19:28N 25°47' W 080°11'0 0.0
2016-Jun-27 18:13N 25°47' W 080°11'0 0.0
2016-Jun-27 17:31N 25°47' W 080°11'0 0.0
2016-Jun-27 16:28N 25°47' W 080°11'0 0.0
2016-Jun-27 15:16N 25°47' W 080°11'0 0.0
2016-Jun-27 14:28N 25°47' W 080°11'0 0.0
2016-Jun-27 13:28N 25°47' W 080°11'0 0.0
2016-Jun-27 12:19N 25°47' W 080°11'0 0.0
2016-Jun-27 11:22N 25°47' W 080°11'0 0.4
2016-Jun-27 10:31N 25°47' W 080°11'8 8.0
2016-Jun-27 09:33N 25°47' W 080°02'1414.5
2016-Jun-27 08:34N 25°54' W 079°48'1413.5
2016-Jun-27 07:33N 26°02' W 079°36'  
2016-Jun-25 01:33N 26°07' W 079°27'9 9.1
2016-Jun-25 00:33N 26°02' W 079°36'9 9.4
2016-Jun-24 23:33N 25°57' W 079°44'10 9.8
2016-Jun-24 22:33N 25°52' W 079°54'10 9.6
2016-Jun-24 21:33N 25°47' W 080°03'7 6.8
2016-Jun-24 20:30N 25°47' W 080°11'0 0.0
2016-Jun-24 19:33N 25°47' W 080°11'0 0.0
2016-Jun-24 18:33N 25°47' W 080°11'0 0.0
2016-Jun-24 17:30N 25°47' W 080°11'0 0.0
2016-Jun-24 16:21N 25°47' W 080°11'0 0.0
2016-Jun-24 15:33N 25°47' W 080°11'0 0.0
2016-Jun-24 14:21N 25°47' W 080°11'0 0.0
2016-Jun-24 13:06N 25°47' W 080°11'0 0.1
2016-Jun-24 10:33N 25°47' W 080°11'7 6.8
2016-Jun-24 09:33N 25°47' W 080°03'23 0.8
2016-Jun-23 03:04N 25°45' W 079°38'26 0.5
2016-Jun-21 00:33N 26°08' W 079°26'1414.1
2016-Jun-20 23:33N 26°01' W 079°39'1414.3
2016-Jun-20 22:33N 25°52' W 079°51'1313.1
2016-Jun-20 21:34N 25°46' W 080°04'6 5.6
2016-Jun-20 20:32N 25°47' W 080°11'0 0.0
2016-Jun-20 10:30N 25°47' W 080°11'8 8.4
2016-Jun-20 09:33N 25°47' W 080°02'1413.5
2016-Jun-20 08:34N 25°55' W 079°50'1414.4
2016-Jun-20 07:33N 26°02' W 079°36'1313.2
2016-Jun-20 06:33N 26°10' W 079°24'81 1.9
2016-Jun-18 12:18N 25°50' W 077°56'79 8.0
2016-Jun-18 02:30N 26°11' W 079°21'9 9.1
2016-Jun-18 01:33N 26°06' W 079°29'10 9.6
2016-Jun-18 00:33N 26°01' W 079°38'  

Dump ship's entire track history